sensor_id;sensor_type;location;lat;lon;timestamp;P1;durP1;ratioP1;P2;durP2;ratioP2
40152;SDS011;26371;56.992;23.912;2022-12-13T00:01:50;25.02;;;11.68;;
40152;SDS011;26371;56.992;23.912;2022-12-13T00:04:20;23.77;;;10.48;;
40152;SDS011;26371;56.992;23.912;2022-12-13T00:06:50;23.00;;;11.27;;
40152;SDS011;26371;56.992;23.912;2022-12-13T00:09:19;21.80;;;10.65;;
40152;SDS011;26371;56.992;23.912;2022-12-13T00:11:49;23.58;;;10.05;;
40152;SDS011;26371;56.992;23.912;2022-12-13T00:16:49;21.02;;;9.40;;
40152;SDS011;26371;56.992;23.912;2022-12-13T00:19:17;22.33;;;10.03;;
40152;SDS011;26371;56.992;23.912;2022-12-13T00:21:49;24.70;;;10.88;;
40152;SDS011;26371;56.992;23.912;2022-12-13T00:24:18;23.88;;;11.18;;
40152;SDS011;26371;56.992;23.912;2022-12-13T00:26:46;23.33;;;10.82;;
40152;SDS011;26371;56.992;23.912;2022-12-13T00:29:15;27.23;;;11.30;;
40152;SDS011;26371;56.992;23.912;2022-12-13T00:31:45;24.50;;;10.15;;
40152;SDS011;26371;56.992;23.912;2022-12-13T00:34:29;25.10;;;10.73;;
40152;SDS011;26371;56.992;23.912;2022-12-13T00:36:57;23.33;;;10.55;;
40152;SDS011;26371;56.992;23.912;2022-12-13T00:39:26;23.23;;;10.95;;
40152;SDS011;26371;56.992;23.912;2022-12-13T00:41:55;22.17;;;10.10;;
40152;SDS011;26371;56.992;23.912;2022-12-13T00:44:24;21.02;;;9.60;;
40152;SDS011;26371;56.992;23.912;2022-12-13T00:46:54;20.67;;;9.52;;
40152;SDS011;26371;56.992;23.912;2022-12-13T00:49:22;26.52;;;11.77;;
40152;SDS011;26371;56.992;23.912;2022-12-13T00:51:51;21.15;;;9.25;;
40152;SDS011;26371;56.992;23.912;2022-12-13T00:54:19;20.33;;;9.25;;
40152;SDS011;26371;56.992;23.912;2022-12-13T00:56:48;21.38;;;10.05;;
40152;SDS011;26371;56.992;23.912;2022-12-13T00:59:18;19.90;;;8.98;;
40152;SDS011;26371;56.992;23.912;2022-12-13T01:01:47;22.25;;;10.55;;
40152;SDS011;26371;56.992;23.912;2022-12-13T01:04:17;21.90;;;9.85;;
40152;SDS011;26371;56.992;23.912;2022-12-13T01:06:46;21.73;;;9.50;;
40152;SDS011;26371;56.992;23.912;2022-12-13T01:09:17;19.83;;;9.63;;
40152;SDS011;26371;56.992;23.912;2022-12-13T01:11:47;20.67;;;9.93;;
40152;SDS011;26371;56.992;23.912;2022-12-13T01:14:16;23.80;;;10.18;;
40152;SDS011;26371;56.992;23.912;2022-12-13T01:16:45;21.42;;;10.27;;
40152;SDS011;26371;56.992;23.912;2022-12-13T01:19:14;19.95;;;9.80;;
40152;SDS011;26371;56.992;23.912;2022-12-13T01:21:44;21.20;;;9.63;;
40152;SDS011;26371;56.992;23.912;2022-12-13T01:24:13;18.67;;;8.43;;
40152;SDS011;26371;56.992;23.912;2022-12-13T01:26:46;19.83;;;8.40;;
40152;SDS011;26371;56.992;23.912;2022-12-13T01:29:14;22.08;;;10.07;;
40152;SDS011;26371;56.992;23.912;2022-12-13T01:31:43;20.73;;;9.13;;
40152;SDS011;26371;56.992;23.912;2022-12-13T01:34:12;22.20;;;9.80;;
40152;SDS011;26371;56.992;23.912;2022-12-13T01:36:44;18.35;;;8.77;;
40152;SDS011;26371;56.992;23.912;2022-12-13T01:39:18;18.52;;;9.02;;
40152;SDS011;26371;56.992;23.912;2022-12-13T01:41:53;18.92;;;8.75;;
40152;SDS011;26371;56.992;23.912;2022-12-13T01:47:35;19.30;;;7.78;;
40152;SDS011;26371;56.992;23.912;2022-12-13T01:50:08;20.60;;;8.63;;
40152;SDS011;26371;56.992;23.912;2022-12-13T01:52:40;18.05;;;7.95;;
40152;SDS011;26371;56.992;23.912;2022-12-13T01:55:11;19.73;;;8.80;;
40152;SDS011;26371;56.992;23.912;2022-12-13T01:57:43;17.90;;;7.90;;
40152;SDS011;26371;56.992;23.912;2022-12-13T02:00:15;20.38;;;10.50;;
40152;SDS011;26371;56.992;23.912;2022-12-13T02:02:44;14.82;;;7.22;;
40152;SDS011;26371;56.992;23.912;2022-12-13T02:05:16;19.27;;;8.93;;
40152;SDS011;26371;56.992;23.912;2022-12-13T02:07:52;22.65;;;8.75;;
40152;SDS011;26371;56.992;23.912;2022-12-13T02:10:24;17.77;;;8.63;;
40152;SDS011;26371;56.992;23.912;2022-12-13T02:12:53;19.23;;;8.60;;
40152;SDS011;26371;56.992;23.912;2022-12-13T02:15:22;20.52;;;8.90;;
40152;SDS011;26371;56.992;23.912;2022-12-13T02:18:05;17.63;;;8.50;;
40152;SDS011;26371;56.992;23.912;2022-12-13T02:21:00;18.73;;;9.02;;
40152;SDS011;26371;56.992;23.912;2022-12-13T02:23:40;20.98;;;8.07;;
40152;SDS011;26371;56.992;23.912;2022-12-13T02:32:37;18.25;;;7.97;;
40152;SDS011;26371;56.992;23.912;2022-12-13T02:35:10;21.20;;;9.25;;
40152;SDS011;26371;56.992;23.912;2022-12-13T02:37:46;19.80;;;8.30;;
40152;SDS011;26371;56.992;23.912;2022-12-13T02:40:21;15.80;;;8.68;;
40152;SDS011;26371;56.992;23.912;2022-12-13T02:42:55;17.92;;;8.20;;
40152;SDS011;26371;56.992;23.912;2022-12-13T02:45:28;18.05;;;8.02;;
40152;SDS011;26371;56.992;23.912;2022-12-13T02:48:03;21.55;;;9.27;;
40152;SDS011;26371;56.992;23.912;2022-12-13T02:50:34;17.30;;;8.40;;
40152;SDS011;26371;56.992;23.912;2022-12-13T02:53:03;16.90;;;8.40;;
40152;SDS011;26371;56.992;23.912;2022-12-13T02:55:32;19.40;;;8.63;;
40152;SDS011;26371;56.992;23.912;2022-12-13T02:58:04;18.50;;;8.63;;
40152;SDS011;26371;56.992;23.912;2022-12-13T03:00:36;19.77;;;8.57;;
40152;SDS011;26371;56.992;23.912;2022-12-13T03:03:14;18.95;;;8.93;;
40152;SDS011;26371;56.992;23.912;2022-12-13T03:05:55;15.38;;;8.00;;
40152;SDS011;26371;56.992;23.912;2022-12-13T03:09:07;19.13;;;7.93;;
40152;SDS011;26371;56.992;23.912;2022-12-13T03:11:52;14.85;;;6.75;;
40152;SDS011;26371;56.992;23.912;2022-12-13T03:14:52;20.77;;;7.90;;
40152;SDS011;26371;56.992;23.912;2022-12-13T03:17:25;19.38;;;8.20;;
40152;SDS011;26371;56.992;23.912;2022-12-13T03:20:00;17.98;;;7.88;;
40152;SDS011;26371;56.992;23.912;2022-12-13T03:22:38;17.02;;;7.35;;
40152;SDS011;26371;56.992;23.912;2022-12-13T03:25:07;15.00;;;7.30;;
40152;SDS011;26371;56.992;23.912;2022-12-13T03:27:36;17.00;;;7.80;;
40152;SDS011;26371;56.992;23.912;2022-12-13T03:30:05;15.95;;;7.38;;
40152;SDS011;26371;56.992;23.912;2022-12-13T03:32:34;18.05;;;7.22;;
40152;SDS011;26371;56.992;23.912;2022-12-13T03:35:05;17.50;;;7.25;;
40152;SDS011;26371;56.992;23.912;2022-12-13T03:37:48;14.10;;;6.63;;
40152;SDS011;26371;56.992;23.912;2022-12-13T03:40:16;17.50;;;7.50;;
40152;SDS011;26371;56.992;23.912;2022-12-13T03:42:46;13.27;;;5.88;;
40152;SDS011;26371;56.992;23.912;2022-12-13T03:45:15;12.50;;;6.00;;
40152;SDS011;26371;56.992;23.912;2022-12-13T03:47:44;14.75;;;6.10;;
40152;SDS011;26371;56.992;23.912;2022-12-13T03:50:14;15.10;;;6.13;;
40152;SDS011;26371;56.992;23.912;2022-12-13T03:52:56;12.52;;;5.85;;
40152;SDS011;26371;56.992;23.912;2022-12-13T03:55:25;12.57;;;5.05;;
40152;SDS011;26371;56.992;23.912;2022-12-13T03:57:54;10.35;;;4.78;;
40152;SDS011;26371;56.992;23.912;2022-12-13T04:00:30;11.93;;;4.13;;
40152;SDS011;26371;56.992;23.912;2022-12-13T04:02:58;12.15;;;4.47;;
40152;SDS011;26371;56.992;23.912;2022-12-13T04:05:28;11.48;;;4.90;;
40152;SDS011;26371;56.992;23.912;2022-12-13T04:07:57;11.35;;;4.72;;
40152;SDS011;26371;56.992;23.912;2022-12-13T04:10:26;8.85;;;3.80;;
40152;SDS011;26371;56.992;23.912;2022-12-13T04:12:55;11.18;;;4.47;;
40152;SDS011;26371;56.992;23.912;2022-12-13T04:15:41;8.45;;;3.90;;
40152;SDS011;26371;56.992;23.912;2022-12-13T04:18:15;8.40;;;3.92;;
40152;SDS011;26371;56.992;23.912;2022-12-13T04:20:45;9.05;;;3.53;;
40152;SDS011;26371;56.992;23.912;2022-12-13T04:23:15;8.73;;;3.83;;
40152;SDS011;26371;56.992;23.912;2022-12-13T04:25:44;7.55;;;3.38;;
40152;SDS011;26371;56.992;23.912;2022-12-13T04:28:14;6.93;;;2.90;;
40152;SDS011;26371;56.992;23.912;2022-12-13T04:30:51;8.82;;;3.67;;
40152;SDS011;26371;56.992;23.912;2022-12-13T04:33:20;10.57;;;3.88;;
40152;SDS011;26371;56.992;23.912;2022-12-13T04:35:51;41.17;;;14.38;;
40152;SDS011;26371;56.992;23.912;2022-12-13T04:38:19;14.98;;;6.38;;
40152;SDS011;26371;56.992;23.912;2022-12-13T04:40:48;11.85;;;5.57;;
40152;SDS011;26371;56.992;23.912;2022-12-13T04:43:16;10.45;;;4.03;;
40152;SDS011;26371;56.992;23.912;2022-12-13T04:45:45;7.72;;;2.88;;
40152;SDS011;26371;56.992;23.912;2022-12-13T04:48:14;9.15;;;3.30;;
40152;SDS011;26371;56.992;23.912;2022-12-13T04:50:58;7.55;;;3.30;;
40152;SDS011;26371;56.992;23.912;2022-12-13T04:53:27;10.77;;;3.28;;
40152;SDS011;26371;56.992;23.912;2022-12-13T04:55:55;7.93;;;3.20;;
40152;SDS011;26371;56.992;23.912;2022-12-13T04:58:25;7.15;;;3.38;;
40152;SDS011;26371;56.992;23.912;2022-12-13T05:00:54;9.13;;;3.33;;
40152;SDS011;26371;56.992;23.912;2022-12-13T05:03:23;7.38;;;3.00;;
40152;SDS011;26371;56.992;23.912;2022-12-13T05:05:51;9.98;;;3.50;;
40152;SDS011;26371;56.992;23.912;2022-12-13T05:08:21;7.88;;;3.33;;
40152;SDS011;26371;56.992;23.912;2022-12-13T05:10:50;9.68;;;3.47;;
40152;SDS011;26371;56.992;23.912;2022-12-13T05:13:20;6.68;;;2.55;;
40152;SDS011;26371;56.992;23.912;2022-12-13T05:15:53;7.93;;;3.42;;
40152;SDS011;26371;56.992;23.912;2022-12-13T05:18:22;9.00;;;3.40;;
40152;SDS011;26371;56.992;23.912;2022-12-13T05:20:51;10.50;;;3.93;;
40152;SDS011;26371;56.992;23.912;2022-12-13T05:23:21;9.77;;;3.87;;
40152;SDS011;26371;56.992;23.912;2022-12-13T05:25:51;9.45;;;3.13;;
40152;SDS011;26371;56.992;23.912;2022-12-13T05:28:20;7.30;;;3.17;;
40152;SDS011;26371;56.992;23.912;2022-12-13T05:30:54;6.93;;;2.67;;
40152;SDS011;26371;56.992;23.912;2022-12-13T05:33:24;9.13;;;3.25;;
40152;SDS011;26371;56.992;23.912;2022-12-13T05:35:53;6.77;;;3.30;;
40152;SDS011;26371;56.992;23.912;2022-12-13T05:38:28;7.82;;;3.00;;
40152;SDS011;26371;56.992;23.912;2022-12-13T05:40:57;9.20;;;3.72;;
40152;SDS011;26371;56.992;23.912;2022-12-13T05:43:26;10.52;;;4.00;;
40152;SDS011;26371;56.992;23.912;2022-12-13T05:46:09;11.82;;;4.60;;
40152;SDS011;26371;56.992;23.912;2022-12-13T05:48:39;11.40;;;4.63;;
40152;SDS011;26371;56.992;23.912;2022-12-13T05:51:08;9.50;;;4.07;;
40152;SDS011;26371;56.992;23.912;2022-12-13T05:53:39;9.23;;;3.88;;
40152;SDS011;26371;56.992;23.912;2022-12-13T05:56:10;10.32;;;4.03;;
40152;SDS011;26371;56.992;23.912;2022-12-13T05:58:48;8.68;;;3.55;;
40152;SDS011;26371;56.992;23.912;2022-12-13T06:01:20;10.10;;;4.18;;
40152;SDS011;26371;56.992;23.912;2022-12-13T06:03:49;8.63;;;2.75;;
40152;SDS011;26371;56.992;23.912;2022-12-13T06:06:18;9.90;;;3.65;;
40152;SDS011;26371;56.992;23.912;2022-12-13T06:08:48;10.57;;;3.70;;
40152;SDS011;26371;56.992;23.912;2022-12-13T06:11:17;8.23;;;3.47;;
40152;SDS011;26371;56.992;23.912;2022-12-13T06:13:57;11.98;;;3.85;;
40152;SDS011;26371;56.992;23.912;2022-12-13T06:16:27;9.60;;;4.72;;
40152;SDS011;26371;56.992;23.912;2022-12-13T06:18:55;8.68;;;3.95;;
40152;SDS011;26371;56.992;23.912;2022-12-13T06:21:30;7.32;;;3.35;;
40152;SDS011;26371;56.992;23.912;2022-12-13T06:24:13;11.85;;;3.72;;
40152;SDS011;26371;56.992;23.912;2022-12-13T06:26:42;8.85;;;3.30;;
40152;SDS011;26371;56.992;23.912;2022-12-13T06:29:12;7.30;;;2.83;;
40152;SDS011;26371;56.992;23.912;2022-12-13T06:31:51;8.53;;;3.13;;
40152;SDS011;26371;56.992;23.912;2022-12-13T06:34:28;7.95;;;3.20;;
40152;SDS011;26371;56.992;23.912;2022-12-13T06:36:59;11.32;;;3.35;;
40152;SDS011;26371;56.992;23.912;2022-12-13T06:39:30;9.90;;;3.55;;
40152;SDS011;26371;56.992;23.912;2022-12-13T06:42:00;8.95;;;3.10;;
40152;SDS011;26371;56.992;23.912;2022-12-13T06:44:32;8.63;;;3.20;;
40152;SDS011;26371;56.992;23.912;2022-12-13T06:47:02;8.93;;;3.30;;
40152;SDS011;26371;56.992;23.912;2022-12-13T06:49:38;8.35;;;3.33;;
40152;SDS011;26371;56.992;23.912;2022-12-13T06:52:10;8.45;;;3.00;;
40152;SDS011;26371;56.992;23.912;2022-12-13T06:54:41;10.35;;;4.07;;
40152;SDS011;26371;56.992;23.912;2022-12-13T06:57:11;10.90;;;3.70;;
40152;SDS011;26371;56.992;23.912;2022-12-13T06:59:40;8.23;;;3.30;;
40152;SDS011;26371;56.992;23.912;2022-12-13T07:02:09;6.35;;;2.83;;
40152;SDS011;26371;56.992;23.912;2022-12-13T07:04:50;7.57;;;3.17;;
40152;SDS011;26371;56.992;23.912;2022-12-13T07:07:20;8.00;;;3.38;;
40152;SDS011;26371;56.992;23.912;2022-12-13T07:09:51;6.93;;;2.95;;
40152;SDS011;26371;56.992;23.912;2022-12-13T07:12:20;9.43;;;3.33;;
40152;SDS011;26371;56.992;23.912;2022-12-13T07:14:51;8.80;;;2.88;;
40152;SDS011;26371;56.992;23.912;2022-12-13T07:17:20;8.98;;;3.15;;
40152;SDS011;26371;56.992;23.912;2022-12-13T07:20:00;10.38;;;3.05;;
40152;SDS011;26371;56.992;23.912;2022-12-13T07:22:30;7.95;;;3.45;;
40152;SDS011;26371;56.992;23.912;2022-12-13T07:25:01;31.98;;;14.48;;
40152;SDS011;26371;56.992;23.912;2022-12-13T07:27:32;16.15;;;9.32;;
40152;SDS011;26371;56.992;23.912;2022-12-13T07:30:00;12.30;;;4.60;;
40152;SDS011;26371;56.992;23.912;2022-12-13T07:32:30;36.00;;;22.63;;
40152;SDS011;26371;56.992;23.912;2022-12-13T07:34:59;9.10;;;4.93;;
40152;SDS011;26371;56.992;23.912;2022-12-13T07:37:27;7.88;;;2.60;;
40152;SDS011;26371;56.992;23.912;2022-12-13T07:39:57;8.40;;;2.97;;
40152;SDS011;26371;56.992;23.912;2022-12-13T07:42:34;7.57;;;3.58;;
40152;SDS011;26371;56.992;23.912;2022-12-13T07:45:03;6.97;;;2.58;;
40152;SDS011;26371;56.992;23.912;2022-12-13T07:47:36;10.50;;;3.97;;
40152;SDS011;26371;56.992;23.912;2022-12-13T07:50:05;9.57;;;3.22;;
40152;SDS011;26371;56.992;23.912;2022-12-13T07:52:51;8.55;;;3.38;;
40152;SDS011;26371;56.992;23.912;2022-12-13T07:55:20;7.15;;;3.03;;
40152;SDS011;26371;56.992;23.912;2022-12-13T07:58:05;9.57;;;3.05;;
40152;SDS011;26371;56.992;23.912;2022-12-13T08:00:36;9.23;;;3.10;;
40152;SDS011;26371;56.992;23.912;2022-12-13T08:03:11;7.53;;;3.35;;
40152;SDS011;26371;56.992;23.912;2022-12-13T08:05:57;7.13;;;3.08;;
40152;SDS011;26371;56.992;23.912;2022-12-13T08:08:27;8.60;;;3.47;;
40152;SDS011;26371;56.992;23.912;2022-12-13T08:10:59;7.43;;;3.45;;
40152;SDS011;26371;56.992;23.912;2022-12-13T08:13:30;8.82;;;3.50;;
40152;SDS011;26371;56.992;23.912;2022-12-13T08:16:00;8.75;;;4.35;;
40152;SDS011;26371;56.992;23.912;2022-12-13T08:18:51;8.95;;;3.55;;
40152;SDS011;26371;56.992;23.912;2022-12-13T08:21:32;8.88;;;3.90;;
40152;SDS011;26371;56.992;23.912;2022-12-13T08:24:22;7.75;;;3.60;;
40152;SDS011;26371;56.992;23.912;2022-12-13T08:26:52;10.20;;;3.83;;
40152;SDS011;26371;56.992;23.912;2022-12-13T08:29:23;10.60;;;4.13;;
40152;SDS011;26371;56.992;23.912;2022-12-13T08:32:01;8.95;;;3.30;;
40152;SDS011;26371;56.992;23.912;2022-12-13T08:34:30;8.45;;;3.72;;
40152;SDS011;26371;56.992;23.912;2022-12-13T08:36:59;9.20;;;4.03;;
40152;SDS011;26371;56.992;23.912;2022-12-13T08:39:30;9.82;;;3.47;;
40152;SDS011;26371;56.992;23.912;2022-12-13T08:42:01;7.68;;;2.75;;
40152;SDS011;26371;56.992;23.912;2022-12-13T08:44:45;8.55;;;2.83;;
40152;SDS011;26371;56.992;23.912;2022-12-13T08:47:15;8.85;;;3.53;;
40152;SDS011;26371;56.992;23.912;2022-12-13T08:49:51;9.02;;;3.00;;
40152;SDS011;26371;56.992;23.912;2022-12-13T08:54:49;9.00;;;4.07;;
40152;SDS011;26371;56.992;23.912;2022-12-13T08:57:18;9.60;;;3.85;;
40152;SDS011;26371;56.992;23.912;2022-12-13T08:59:48;8.35;;;3.40;;
40152;SDS011;26371;56.992;23.912;2022-12-13T09:02:16;9.75;;;3.20;;
40152;SDS011;26371;56.992;23.912;2022-12-13T09:04:45;11.45;;;3.42;;
40152;SDS011;26371;56.992;23.912;2022-12-13T09:07:14;8.85;;;3.35;;
40152;SDS011;26371;56.992;23.912;2022-12-13T09:09:42;9.45;;;3.38;;
40152;SDS011;26371;56.992;23.912;2022-12-13T09:12:21;10.02;;;4.10;;
40152;SDS011;26371;56.992;23.912;2022-12-13T09:14:57;12.25;;;3.55;;
40152;SDS011;26371;56.992;23.912;2022-12-13T09:17:29;7.43;;;3.00;;
40152;SDS011;26371;56.992;23.912;2022-12-13T09:20:04;11.00;;;4.78;;
40152;SDS011;26371;56.992;23.912;2022-12-13T09:22:54;9.95;;;4.05;;
40152;SDS011;26371;56.992;23.912;2022-12-13T09:25:28;8.32;;;3.10;;
40152;SDS011;26371;56.992;23.912;2022-12-13T09:28:04;9.65;;;3.65;;
40152;SDS011;26371;56.992;23.912;2022-12-13T09:30:36;7.35;;;3.15;;
40152;SDS011;26371;56.992;23.912;2022-12-13T09:33:06;9.05;;;3.25;;
40152;SDS011;26371;56.992;23.912;2022-12-13T09:35:54;7.65;;;2.90;;
40152;SDS011;26371;56.992;23.912;2022-12-13T09:38:23;8.38;;;2.95;;
40152;SDS011;26371;56.992;23.912;2022-12-13T09:40:51;7.43;;;3.30;;
40152;SDS011;26371;56.992;23.912;2022-12-13T09:43:26;7.22;;;3.55;;
40152;SDS011;26371;56.992;23.912;2022-12-13T09:46:12;8.20;;;2.90;;
40152;SDS011;26371;56.992;23.912;2022-12-13T09:48:49;6.88;;;2.63;;
40152;SDS011;26371;56.992;23.912;2022-12-13T09:51:27;6.50;;;2.75;;
40152;SDS011;26371;56.992;23.912;2022-12-13T09:54:12;6.63;;;3.22;;
40152;SDS011;26371;56.992;23.912;2022-12-13T09:56:45;5.72;;;2.08;;
40152;SDS011;26371;56.992;23.912;2022-12-13T09:59:17;6.20;;;2.45;;
40152;SDS011;26371;56.992;23.912;2022-12-13T10:01:52;7.78;;;2.72;;
40152;SDS011;26371;56.992;23.912;2022-12-13T10:04:21;5.82;;;2.58;;
40152;SDS011;26371;56.992;23.912;2022-12-13T10:06:50;5.53;;;2.27;;
40152;SDS011;26371;56.992;23.912;2022-12-13T10:11:49;6.70;;;2.30;;
40152;SDS011;26371;56.992;23.912;2022-12-13T10:14:20;7.22;;;2.55;;
40152;SDS011;26371;56.992;23.912;2022-12-13T10:16:54;6.05;;;2.08;;
40152;SDS011;26371;56.992;23.912;2022-12-13T10:19:28;9.00;;;3.90;;
40152;SDS011;26371;56.992;23.912;2022-12-13T10:22:02;6.75;;;2.53;;
40152;SDS011;26371;56.992;23.912;2022-12-13T10:24:46;8.45;;;3.75;;
40152;SDS011;26371;56.992;23.912;2022-12-13T10:27:18;7.55;;;2.75;;
40152;SDS011;26371;56.992;23.912;2022-12-13T10:30:02;7.38;;;2.50;;
40152;SDS011;26371;56.992;23.912;2022-12-13T10:32:51;6.38;;;2.35;;
40152;SDS011;26371;56.992;23.912;2022-12-13T10:35:25;7.28;;;3.17;;
40152;SDS011;26371;56.992;23.912;2022-12-13T10:37:55;8.70;;;3.72;;
40152;SDS011;26371;56.992;23.912;2022-12-13T10:40:31;7.88;;;2.65;;
40152;SDS011;26371;56.992;23.912;2022-12-13T10:43:05;20.40;;;10.00;;
40152;SDS011;26371;56.992;23.912;2022-12-13T10:45:35;5.60;;;2.30;;
40152;SDS011;26371;56.992;23.912;2022-12-13T10:48:10;6.40;;;2.38;;
40152;SDS011;26371;56.992;23.912;2022-12-13T10:50:56;8.85;;;3.75;;
40152;SDS011;26371;56.992;23.912;2022-12-13T10:53:28;6.60;;;2.08;;
40152;SDS011;26371;56.992;23.912;2022-12-13T10:55:58;6.63;;;2.30;;
40152;SDS011;26371;56.992;23.912;2022-12-13T11:01:08;5.53;;;2.20;;
40152;SDS011;26371;56.992;23.912;2022-12-13T11:03:43;4.78;;;1.92;;
40152;SDS011;26371;56.992;23.912;2022-12-13T11:06:37;4.88;;;1.92;;
40152;SDS011;26371;56.992;23.912;2022-12-13T11:09:12;5.90;;;2.50;;
40152;SDS011;26371;56.992;23.912;2022-12-13T11:14:25;5.38;;;2.00;;
40152;SDS011;26371;56.992;23.912;2022-12-13T11:16:58;5.18;;;2.40;;
40152;SDS011;26371;56.992;23.912;2022-12-13T11:19:36;6.30;;;2.42;;
40152;SDS011;26371;56.992;23.912;2022-12-13T11:22:07;5.85;;;2.42;;
40152;SDS011;26371;56.992;23.912;2022-12-13T11:24:37;4.75;;;1.88;;
40152;SDS011;26371;56.992;23.912;2022-12-13T11:27:18;5.65;;;2.15;;
40152;SDS011;26371;56.992;23.912;2022-12-13T11:30:10;5.85;;;2.10;;
40152;SDS011;26371;56.992;23.912;2022-12-13T11:32:47;8.93;;;2.60;;
40152;SDS011;26371;56.992;23.912;2022-12-13T11:35:45;5.22;;;1.90;;
40152;SDS011;26371;56.992;23.912;2022-12-13T11:38:24;6.47;;;1.95;;
40152;SDS011;26371;56.992;23.912;2022-12-13T11:40:58;5.13;;;1.70;;
40152;SDS011;26371;56.992;23.912;2022-12-13T11:43:34;4.53;;;1.60;;
40152;SDS011;26371;56.992;23.912;2022-12-13T11:46:12;5.07;;;1.60;;
40152;SDS011;26371;56.992;23.912;2022-12-13T11:48:46;4.10;;;1.65;;
40152;SDS011;26371;56.992;23.912;2022-12-13T11:51:23;5.45;;;1.65;;
40152;SDS011;26371;56.992;23.912;2022-12-13T11:53:57;4.25;;;1.48;;
40152;SDS011;26371;56.992;23.912;2022-12-13T11:56:29;6.43;;;1.58;;
40152;SDS011;26371;56.992;23.912;2022-12-13T11:59:06;5.05;;;1.88;;
40152;SDS011;26371;56.992;23.912;2022-12-13T12:02:06;4.63;;;1.48;;
40152;SDS011;26371;56.992;23.912;2022-12-13T12:04:44;4.45;;;1.85;;
40152;SDS011;26371;56.992;23.912;2022-12-13T12:07:26;5.38;;;1.88;;
40152;SDS011;26371;56.992;23.912;2022-12-13T12:10:03;6.60;;;1.30;;
40152;SDS011;26371;56.992;23.912;2022-12-13T12:12:54;4.75;;;2.00;;
40152;SDS011;26371;56.992;23.912;2022-12-13T12:15:33;4.43;;;1.70;;
40152;SDS011;26371;56.992;23.912;2022-12-13T12:18:09;5.10;;;1.25;;
40152;SDS011;26371;56.992;23.912;2022-12-13T12:20:59;5.93;;;1.77;;
40152;SDS011;26371;56.992;23.912;2022-12-13T12:23:39;4.50;;;1.65;;
40152;SDS011;26371;56.992;23.912;2022-12-13T12:26:22;5.32;;;1.60;;
40152;SDS011;26371;56.992;23.912;2022-12-13T12:29:04;5.82;;;2.47;;
40152;SDS011;26371;56.992;23.912;2022-12-13T12:31:54;6.60;;;2.40;;
40152;SDS011;26371;56.992;23.912;2022-12-13T12:34:34;7.03;;;2.20;;
40152;SDS011;26371;56.992;23.912;2022-12-13T12:37:14;8.82;;;2.40;;
40152;SDS011;26371;56.992;23.912;2022-12-13T12:39:55;6.82;;;2.50;;
40152;SDS011;26371;56.992;23.912;2022-12-13T12:42:39;7.88;;;2.50;;
40152;SDS011;26371;56.992;23.912;2022-12-13T12:45:40;5.63;;;2.22;;
40152;SDS011;26371;56.992;23.912;2022-12-13T12:48:27;7.20;;;2.60;;
40152;SDS011;26371;56.992;23.912;2022-12-13T12:51:28;7.68;;;2.45;;
40152;SDS011;26371;56.992;23.912;2022-12-13T12:54:10;8.25;;;2.72;;
40152;SDS011;26371;56.992;23.912;2022-12-13T12:57:01;7.75;;;2.50;;
40152;SDS011;26371;56.992;23.912;2022-12-13T12:59:39;8.38;;;2.40;;
40152;SDS011;26371;56.992;23.912;2022-12-13T13:02:16;5.78;;;2.10;;
40152;SDS011;26371;56.992;23.912;2022-12-13T13:04:51;6.80;;;2.13;;
40152;SDS011;26371;56.992;23.912;2022-12-13T13:07:25;5.05;;;1.77;;
40152;SDS011;26371;56.992;23.912;2022-12-13T13:10:05;4.55;;;1.55;;
40152;SDS011;26371;56.992;23.912;2022-12-13T13:12:54;4.88;;;1.75;;
40152;SDS011;26371;56.992;23.912;2022-12-13T13:15:51;5.35;;;1.90;;
40152;SDS011;26371;56.992;23.912;2022-12-13T13:21:24;5.65;;;2.20;;
40152;SDS011;26371;56.992;23.912;2022-12-13T13:24:18;5.82;;;2.20;;
40152;SDS011;26371;56.992;23.912;2022-12-13T13:26:49;6.95;;;2.10;;
40152;SDS011;26371;56.992;23.912;2022-12-13T13:29:24;6.30;;;2.15;;
40152;SDS011;26371;56.992;23.912;2022-12-13T13:32:27;4.47;;;1.75;;
40152;SDS011;26371;56.992;23.912;2022-12-13T13:47:39;7.40;;;2.55;;
40152;SDS011;26371;56.992;23.912;2022-12-13T13:53:33;8.00;;;2.42;;
40152;SDS011;26371;56.992;23.912;2022-12-13T14:06:24;7.30;;;2.28;;
40152;SDS011;26371;56.992;23.912;2022-12-13T14:12:36;9.50;;;2.47;;
40152;SDS011;26371;56.992;23.912;2022-12-13T14:21:45;7.68;;;2.60;;
40152;SDS011;26371;56.992;23.912;2022-12-13T14:24:27;6.90;;;2.28;;
40152;SDS011;26371;56.992;23.912;2022-12-13T14:27:14;7.25;;;2.35;;
40152;SDS011;26371;56.992;23.912;2022-12-13T14:29:47;6.03;;;2.15;;
40152;SDS011;26371;56.992;23.912;2022-12-13T14:32:24;6.85;;;2.10;;
40152;SDS011;26371;56.992;23.912;2022-12-13T14:34:54;7.85;;;2.42;;
40152;SDS011;26371;56.992;23.912;2022-12-13T14:37:26;6.35;;;2.22;;
40152;SDS011;26371;56.992;23.912;2022-12-13T14:39:56;5.85;;;2.25;;
40152;SDS011;26371;56.992;23.912;2022-12-13T14:42:26;5.93;;;2.20;;
40152;SDS011;26371;56.992;23.912;2022-12-13T14:45:11;6.32;;;2.28;;
40152;SDS011;26371;56.992;23.912;2022-12-13T14:47:41;5.70;;;2.28;;
40152;SDS011;26371;56.992;23.912;2022-12-13T14:50:11;5.80;;;2.10;;
40152;SDS011;26371;56.992;23.912;2022-12-13T14:52:44;6.95;;;2.13;;
40152;SDS011;26371;56.992;23.912;2022-12-13T14:55:22;5.45;;;2.05;;
40152;SDS011;26371;56.992;23.912;2022-12-13T14:57:53;4.72;;;1.58;;
40152;SDS011;26371;56.992;23.912;2022-12-13T15:00:24;4.90;;;1.58;;
40152;SDS011;26371;56.992;23.912;2022-12-13T15:02:55;8.30;;;2.92;;
40152;SDS011;26371;56.992;23.912;2022-12-13T15:05:27;3.90;;;1.52;;
40152;SDS011;26371;56.992;23.912;2022-12-13T15:08:00;8.65;;;2.30;;
40152;SDS011;26371;56.992;23.912;2022-12-13T15:10:37;7.60;;;2.17;;
40152;SDS011;26371;56.992;23.912;2022-12-13T15:13:19;4.80;;;1.60;;
40152;SDS011;26371;56.992;23.912;2022-12-13T15:15:56;5.88;;;1.90;;
40152;SDS011;26371;56.992;23.912;2022-12-13T15:18:37;4.75;;;1.80;;
40152;SDS011;26371;56.992;23.912;2022-12-13T15:21:16;6.13;;;1.63;;
40152;SDS011;26371;56.992;23.912;2022-12-13T15:23:51;5.28;;;2.00;;
40152;SDS011;26371;56.992;23.912;2022-12-13T15:26:26;6.07;;;1.58;;
40152;SDS011;26371;56.992;23.912;2022-12-13T15:28:56;5.05;;;1.80;;
40152;SDS011;26371;56.992;23.912;2022-12-13T15:31:35;4.75;;;1.63;;
40152;SDS011;26371;56.992;23.912;2022-12-13T15:37:05;5.67;;;2.00;;
40152;SDS011;26371;56.992;23.912;2022-12-13T15:39:58;4.05;;;1.80;;
40152;SDS011;26371;56.992;23.912;2022-12-13T15:42:32;6.22;;;2.17;;
40152;SDS011;26371;56.992;23.912;2022-12-13T15:45:04;5.82;;;2.30;;
40152;SDS011;26371;56.992;23.912;2022-12-13T15:47:44;6.32;;;2.45;;
40152;SDS011;26371;56.992;23.912;2022-12-13T15:50:28;6.47;;;2.30;;
40152;SDS011;26371;56.992;23.912;2022-12-13T15:53:00;6.82;;;2.40;;
40152;SDS011;26371;56.992;23.912;2022-12-13T15:55:33;7.80;;;2.60;;
40152;SDS011;26371;56.992;23.912;2022-12-13T15:58:16;8.82;;;2.83;;
40152;SDS011;26371;56.992;23.912;2022-12-13T16:00:52;6.93;;;2.20;;
40152;SDS011;26371;56.992;23.912;2022-12-13T16:03:21;7.35;;;2.08;;
40152;SDS011;26371;56.992;23.912;2022-12-13T16:05:53;6.35;;;2.47;;
40152;SDS011;26371;56.992;23.912;2022-12-13T16:08:24;9.70;;;2.60;;
40152;SDS011;26371;56.992;23.912;2022-12-13T16:10:56;7.28;;;2.40;;
40152;SDS011;26371;56.992;23.912;2022-12-13T16:13:26;6.80;;;2.47;;
40152;SDS011;26371;56.992;23.912;2022-12-13T16:15:57;7.75;;;2.55;;